Portada
METAR-TAF:

METAR-TAF

Aeroports :

Futuna, França

latitud: 14-19S, longitud: 178-07W, altitud: 6 m

METAR: manca

Hora: 01:07 (13:07 UTC)

Pronòstic

L'informe es va fer fa 2 hores i 7 minuts, a les 11:00 UTC
Pronòstic vàlid del 17 a les 12 UTC al 18 a les 12 UTC
Vent 5 kt del Sud-Est
Visibilitat 10 km o més
Núvols disperses a una alçada de 2500 ft
Temporalment
l' 18 a les 03 UTC al 18 a les 09 UTC
xàfecs de pluja

TAF: NLWF 171100Z 1712/1812 14005KT 9999 SCT025 TEMPO 1803/1809 SHRA

Observacions i pronòstics meteorològics de més de 4000 aeroports (METAR i TAF).

Les estacions disponibles són els punts grocs i vermells al mapa.

Posi el ratolí al punt desitjat per veure el nom de l'estació.

Feu clic per veure les observacions i els pronòstics meteorològics.

Per canviar el mapa: feu clic els botons verds amb una creu de color negre per apropar; al botó verd amb un guió per allunyar la imatge; o en les fletxes verdes per a mapes adjacents.


METAR-TAF: